sensor_id;sensor_type;location;lat;lon;timestamp;temperature;humidity
4564;DHT22;2294;51.818;8.484;2023-05-02T00:00:52;13.20;99.90
4564;DHT22;2294;51.818;8.484;2023-05-02T00:03:19;13.40;99.90
4564;DHT22;2294;51.818;8.484;2023-05-02T00:05:46;13.60;99.90
4564;DHT22;2294;51.818;8.484;2023-05-02T00:08:13;13.70;99.90
4564;DHT22;2294;51.818;8.484;2023-05-02T00:10:40;13.70;99.90
4564;DHT22;2294;51.818;8.484;2023-05-02T00:13:09;13.60;99.90
4564;DHT22;2294;51.818;8.484;2023-05-02T00:15:35;13.60;99.90
4564;DHT22;2294;51.818;8.484;2023-05-02T00:18:02;13.70;99.90
4564;DHT22;2294;51.818;8.484;2023-05-02T00:20:29;13.70;99.90
4564;DHT22;2294;51.818;8.484;2023-05-02T00:22:56;13.60;99.90
4564;DHT22;2294;51.818;8.484;2023-05-02T00:25:23;13.70;99.90
4564;DHT22;2294;51.818;8.484;2023-05-02T00:27:50;13.70;99.90
4564;DHT22;2294;51.818;8.484;2023-05-02T00:30:18;13.70;99.90
4564;DHT22;2294;51.818;8.484;2023-05-02T00:32:45;13.80;99.90
4564;DHT22;2294;51.818;8.484;2023-05-02T00:35:12;13.70;99.90
4564;DHT22;2294;51.818;8.484;2023-05-02T00:37:39;13.70;99.90
4564;DHT22;2294;51.818;8.484;2023-05-02T00:40:07;13.90;99.90
4564;DHT22;2294;51.818;8.484;2023-05-02T00:42:34;14.00;99.90
4564;DHT22;2294;51.818;8.484;2023-05-02T00:45:02;13.80;99.90
4564;DHT22;2294;51.818;8.484;2023-05-02T00:47:33;13.70;99.90
4564;DHT22;2294;51.818;8.484;2023-05-02T00:50:00;13.90;99.90
4564;DHT22;2294;51.818;8.484;2023-05-02T00:52:30;13.90;99.90
4564;DHT22;2294;51.818;8.484;2023-05-02T00:54:57;14.00;99.90
4564;DHT22;2294;51.818;8.484;2023-05-02T00:57:24;13.80;99.90
4564;DHT22;2294;51.818;8.484;2023-05-02T00:59:51;13.90;99.90
4564;DHT22;2294;51.818;8.484;2023-05-02T01:02:29;13.90;99.90
4564;DHT22;2294;51.818;8.484;2023-05-02T01:05:09;13.80;99.90
4564;DHT22;2294;51.818;8.484;2023-05-02T01:07:50;13.80;99.90
4564;DHT22;2294;51.818;8.484;2023-05-02T01:10:26;13.90;99.90
4564;DHT22;2294;51.818;8.484;2023-05-02T01:12:59;14.00;99.90
4564;DHT22;2294;51.818;8.484;2023-05-02T01:15:30;14.00;99.90
4564;DHT22;2294;51.818;8.484;2023-05-02T01:18:00;14.00;99.90
4564;DHT22;2294;51.818;8.484;2023-05-02T01:20:30;14.00;99.90
4564;DHT22;2294;51.818;8.484;2023-05-02T01:23:03;13.90;99.90
4564;DHT22;2294;51.818;8.484;2023-05-02T01:25:51;13.90;99.90
4564;DHT22;2294;51.818;8.484;2023-05-02T01:28:40;14.00;99.90
4564;DHT22;2294;51.818;8.484;2023-05-02T01:31:07;13.80;99.90
4564;DHT22;2294;51.818;8.484;2023-05-02T01:33:35;13.80;99.90
4564;DHT22;2294;51.818;8.484;2023-05-02T01:36:05;14.00;99.90
4564;DHT22;2294;51.818;8.484;2023-05-02T01:38:34;13.80;99.90
4564;DHT22;2294;51.818;8.484;2023-05-02T01:41:01;13.90;99.90
4564;DHT22;2294;51.818;8.484;2023-05-02T01:43:34;13.90;99.90
4564;DHT22;2294;51.818;8.484;2023-05-02T01:46:04;14.00;99.90
4564;DHT22;2294;51.818;8.484;2023-05-02T01:48:33;13.80;99.90
4564;DHT22;2294;51.818;8.484;2023-05-02T01:51:01;13.70;99.90
4564;DHT22;2294;51.818;8.484;2023-05-02T01:53:30;13.80;99.90
4564;DHT22;2294;51.818;8.484;2023-05-02T01:56:00;13.70;99.90
4564;DHT22;2294;51.818;8.484;2023-05-02T01:58:29;13.80;99.90
4564;DHT22;2294;51.818;8.484;2023-05-02T02:00:59;13.90;99.90
4564;DHT22;2294;51.818;8.484;2023-05-02T02:03:29;13.90;99.90
4564;DHT22;2294;51.818;8.484;2023-05-02T02:05:57;13.80;99.90
4564;DHT22;2294;51.818;8.484;2023-05-02T02:08:24;13.70;99.90
4564;DHT22;2294;51.818;8.484;2023-05-02T02:10:56;13.90;99.90
4564;DHT22;2294;51.818;8.484;2023-05-02T02:13:27;13.80;99.90
4564;DHT22;2294;51.818;8.484;2023-05-02T02:15:58;13.90;99.90
4564;DHT22;2294;51.818;8.484;2023-05-02T02:18:29;13.80;99.90
4564;DHT22;2294;51.818;8.484;2023-05-02T02:20:58;13.80;99.90
4564;DHT22;2294;51.818;8.484;2023-05-02T02:23:27;13.90;99.90
4564;DHT22;2294;51.818;8.484;2023-05-02T02:25:56;13.80;99.90
4564;DHT22;2294;51.818;8.484;2023-05-02T02:28:23;13.80;99.90
4564;DHT22;2294;51.818;8.484;2023-05-02T02:30:50;13.70;99.90
4564;DHT22;2294;51.818;8.484;2023-05-02T02:33:18;13.80;99.90
4564;DHT22;2294;51.818;8.484;2023-05-02T02:35:54;13.90;99.90
4564;DHT22;2294;51.818;8.484;2023-05-02T02:38:28;14.20;99.90
4564;DHT22;2294;51.818;8.484;2023-05-02T02:41:02;14.10;99.90
4564;DHT22;2294;51.818;8.484;2023-05-02T02:43:37;14.00;99.90
4564;DHT22;2294;51.818;8.484;2023-05-02T02:46:16;13.70;99.90
4564;DHT22;2294;51.818;8.484;2023-05-02T02:48:52;13.80;99.90
4564;DHT22;2294;51.818;8.484;2023-05-02T02:51:28;13.70;99.90
4564;DHT22;2294;51.818;8.484;2023-05-02T02:53:59;13.70;99.90
4564;DHT22;2294;51.818;8.484;2023-05-02T02:56:37;13.80;99.90
4564;DHT22;2294;51.818;8.484;2023-05-02T02:59:06;13.80;99.90
4564;DHT22;2294;51.818;8.484;2023-05-02T03:01:34;13.90;99.90
4564;DHT22;2294;51.818;8.484;2023-05-02T03:04:04;14.00;99.90
4564;DHT22;2294;51.818;8.484;2023-05-02T03:06:34;13.80;99.90
4564;DHT22;2294;51.818;8.484;2023-05-02T03:09:01;13.90;99.90
4564;DHT22;2294;51.818;8.484;2023-05-02T03:11:29;13.90;99.90
4564;DHT22;2294;51.818;8.484;2023-05-02T03:13:56;13.70;99.90
4564;DHT22;2294;51.818;8.484;2023-05-02T03:16:34;13.60;99.90
4564;DHT22;2294;51.818;8.484;2023-05-02T03:19:02;13.60;99.90
4564;DHT22;2294;51.818;8.484;2023-05-02T03:21:29;13.70;99.90
4564;DHT22;2294;51.818;8.484;2023-05-02T03:23:59;13.70;99.90
4564;DHT22;2294;51.818;8.484;2023-05-02T03:26:26;13.70;99.90
4564;DHT22;2294;51.818;8.484;2023-05-02T03:28:53;13.90;99.90
4564;DHT22;2294;51.818;8.484;2023-05-02T03:31:20;13.70;99.90
4564;DHT22;2294;51.818;8.484;2023-05-02T03:33:47;14.00;99.90
4564;DHT22;2294;51.818;8.484;2023-05-02T03:36:14;13.70;99.90
4564;DHT22;2294;51.818;8.484;2023-05-02T03:38:41;13.80;99.90
4564;DHT22;2294;51.818;8.484;2023-05-02T03:41:09;13.60;99.90
4564;DHT22;2294;51.818;8.484;2023-05-02T03:43:36;13.80;99.90
4564;DHT22;2294;51.818;8.484;2023-05-02T03:46:04;13.80;99.90
4564;DHT22;2294;51.818;8.484;2023-05-02T03:48:32;13.70;99.90
4564;DHT22;2294;51.818;8.484;2023-05-02T03:51:00;13.70;99.90
4564;DHT22;2294;51.818;8.484;2023-05-02T03:53:28;13.70;99.90
4564;DHT22;2294;51.818;8.484;2023-05-02T03:55:55;13.80;99.90
4564;DHT22;2294;51.818;8.484;2023-05-02T03:58:23;13.80;99.90
4564;DHT22;2294;51.818;8.484;2023-05-02T04:00:51;13.60;99.90
4564;DHT22;2294;51.818;8.484;2023-05-02T04:03:18;13.60;99.90
4564;DHT22;2294;51.818;8.484;2023-05-02T04:05:45;13.80;99.90
4564;DHT22;2294;51.818;8.484;2023-05-02T04:08:12;13.80;99.90
4564;DHT22;2294;51.818;8.484;2023-05-02T04:10:39;13.70;99.90
4564;DHT22;2294;51.818;8.484;2023-05-02T04:13:06;13.60;99.90
4564;DHT22;2294;51.818;8.484;2023-05-02T04:15:34;13.70;99.90
4564;DHT22;2294;51.818;8.484;2023-05-02T04:18:01;13.80;99.90
4564;DHT22;2294;51.818;8.484;2023-05-02T04:20:28;13.80;99.90
4564;DHT22;2294;51.818;8.484;2023-05-02T04:22:55;13.70;99.90
4564;DHT22;2294;51.818;8.484;2023-05-02T04:25:22;13.70;99.90
4564;DHT22;2294;51.818;8.484;2023-05-02T04:27:49;13.80;99.90
4564;DHT22;2294;51.818;8.484;2023-05-02T04:30:16;13.90;99.90
4564;DHT22;2294;51.818;8.484;2023-05-02T04:32:44;13.70;99.90
4564;DHT22;2294;51.818;8.484;2023-05-02T04:35:11;13.80;99.90
4564;DHT22;2294;51.818;8.484;2023-05-02T04:37:39;13.80;99.90
4564;DHT22;2294;51.818;8.484;2023-05-02T04:40:07;13.80;99.90
4564;DHT22;2294;51.818;8.484;2023-05-02T04:42:34;13.80;99.90
4564;DHT22;2294;51.818;8.484;2023-05-02T04:45:01;13.80;99.90
4564;DHT22;2294;51.818;8.484;2023-05-02T04:47:28;13.90;99.90
4564;DHT22;2294;51.818;8.484;2023-05-02T04:49:56;13.90;99.90
4564;DHT22;2294;51.818;8.484;2023-05-02T04:52:23;14.00;99.90
4564;DHT22;2294;51.818;8.484;2023-05-02T04:54:50;14.10;99.90
4564;DHT22;2294;51.818;8.484;2023-05-02T04:57:17;14.00;99.90
4564;DHT22;2294;51.818;8.484;2023-05-02T04:59:44;14.10;99.90
4564;DHT22;2294;51.818;8.484;2023-05-02T05:02:11;14.00;99.90
4564;DHT22;2294;51.818;8.484;2023-05-02T05:04:38;14.00;99.90
4564;DHT22;2294;51.818;8.484;2023-05-02T05:07:06;14.10;99.90
4564;DHT22;2294;51.818;8.484;2023-05-02T05:09:33;14.00;99.90
4564;DHT22;2294;51.818;8.484;2023-05-02T05:12:00;14.10;99.90
4564;DHT22;2294;51.818;8.484;2023-05-02T05:14:27;14.20;99.90
4564;DHT22;2294;51.818;8.484;2023-05-02T05:16:56;14.20;99.90
4564;DHT22;2294;51.818;8.484;2023-05-02T05:19:24;14.50;99.90
4564;DHT22;2294;51.818;8.484;2023-05-02T05:21:50;14.70;99.90
4564;DHT22;2294;51.818;8.484;2023-05-02T05:24:19;14.80;99.90
4564;DHT22;2294;51.818;8.484;2023-05-02T05:26:46;14.60;99.90
4564;DHT22;2294;51.818;8.484;2023-05-02T05:29:13;14.70;99.90
4564;DHT22;2294;51.818;8.484;2023-05-02T05:31:40;14.80;99.90
4564;DHT22;2294;51.818;8.484;2023-05-02T05:34:07;15.00;99.90
4564;DHT22;2294;51.818;8.484;2023-05-02T05:36:34;15.10;99.90
4564;DHT22;2294;51.818;8.484;2023-05-02T05:39:01;15.20;99.90
4564;DHT22;2294;51.818;8.484;2023-05-02T05:41:30;15.30;99.90
4564;DHT22;2294;51.818;8.484;2023-05-02T05:43:58;15.30;99.90
4564;DHT22;2294;51.818;8.484;2023-05-02T05:46:25;15.30;99.90
4564;DHT22;2294;51.818;8.484;2023-05-02T05:48:52;15.10;99.90
4564;DHT22;2294;51.818;8.484;2023-05-02T05:51:19;15.50;99.90
4564;DHT22;2294;51.818;8.484;2023-05-02T05:53:46;15.30;99.90
4564;DHT22;2294;51.818;8.484;2023-05-02T05:56:13;15.40;99.90
4564;DHT22;2294;51.818;8.484;2023-05-02T05:58:41;15.10;99.90
4564;DHT22;2294;51.818;8.484;2023-05-02T06:01:08;14.80;99.90
4564;DHT22;2294;51.818;8.484;2023-05-02T06:03:35;14.70;99.90
4564;DHT22;2294;51.818;8.484;2023-05-02T06:06:03;15.00;99.90
4564;DHT22;2294;51.818;8.484;2023-05-02T06:08:30;14.90;99.90
4564;DHT22;2294;51.818;8.484;2023-05-02T06:10:57;14.60;99.90
4564;DHT22;2294;51.818;8.484;2023-05-02T06:13:24;14.60;99.90
4564;DHT22;2294;51.818;8.484;2023-05-02T06:15:52;14.50;99.90
4564;DHT22;2294;51.818;8.484;2023-05-02T06:18:19;14.60;99.90
4564;DHT22;2294;51.818;8.484;2023-05-02T06:20:46;14.50;99.90
4564;DHT22;2294;51.818;8.484;2023-05-02T06:23:13;14.50;99.90
4564;DHT22;2294;51.818;8.484;2023-05-02T06:25:40;14.50;99.90
4564;DHT22;2294;51.818;8.484;2023-05-02T06:28:07;14.40;99.90
4564;DHT22;2294;51.818;8.484;2023-05-02T06:30:34;14.20;99.90
4564;DHT22;2294;51.818;8.484;2023-05-02T06:33:04;14.10;99.90
4564;DHT22;2294;51.818;8.484;2023-05-02T06:35:32;14.10;99.90
4564;DHT22;2294;51.818;8.484;2023-05-02T06:37:58;14.20;99.90
4564;DHT22;2294;51.818;8.484;2023-05-02T06:40:25;14.10;99.90
4564;DHT22;2294;51.818;8.484;2023-05-02T06:42:52;14.00;99.90
4564;DHT22;2294;51.818;8.484;2023-05-02T06:45:19;14.10;99.90
4564;DHT22;2294;51.818;8.484;2023-05-02T06:47:46;14.20;99.90
4564;DHT22;2294;51.818;8.484;2023-05-02T06:50:15;13.90;99.90
4564;DHT22;2294;51.818;8.484;2023-05-02T06:52:41;14.00;99.90
4564;DHT22;2294;51.818;8.484;2023-05-02T06:55:08;13.70;99.90
4564;DHT22;2294;51.818;8.484;2023-05-02T06:57:35;13.90;99.90
4564;DHT22;2294;51.818;8.484;2023-05-02T07:00:03;13.80;99.90
4564;DHT22;2294;51.818;8.484;2023-05-02T07:02:30;13.60;99.90
4564;DHT22;2294;51.818;8.484;2023-05-02T07:04:57;13.10;99.90
4564;DHT22;2294;51.818;8.484;2023-05-02T07:07:25;12.80;99.90
4564;DHT22;2294;51.818;8.484;2023-05-02T07:09:52;12.70;99.90
4564;DHT22;2294;51.818;8.484;2023-05-02T07:12:19;12.60;99.90
4564;DHT22;2294;51.818;8.484;2023-05-02T07:14:46;12.60;99.90
4564;DHT22;2294;51.818;8.484;2023-05-02T07:17:13;12.50;99.90
4564;DHT22;2294;51.818;8.484;2023-05-02T07:19:40;12.50;99.90
4564;DHT22;2294;51.818;8.484;2023-05-02T07:22:07;12.60;99.90
4564;DHT22;2294;51.818;8.484;2023-05-02T07:24:39;12.40;99.90
4564;DHT22;2294;51.818;8.484;2023-05-02T07:27:07;12.10;99.90
4564;DHT22;2294;51.818;8.484;2023-05-02T07:29:34;11.80;99.90
4564;DHT22;2294;51.818;8.484;2023-05-02T07:32:01;12.00;99.90
4564;DHT22;2294;51.818;8.484;2023-05-02T07:34:28;11.50;99.90
4564;DHT22;2294;51.818;8.484;2023-05-02T07:36:55;11.40;99.90
4564;DHT22;2294;51.818;8.484;2023-05-02T07:39:23;11.40;99.90
4564;DHT22;2294;51.818;8.484;2023-05-02T07:41:52;11.60;99.90
4564;DHT22;2294;51.818;8.484;2023-05-02T07:44:19;11.70;99.90
4564;DHT22;2294;51.818;8.484;2023-05-02T07:46:46;11.50;99.90
4564;DHT22;2294;51.818;8.484;2023-05-02T07:49:13;11.40;99.90
4564;DHT22;2294;51.818;8.484;2023-05-02T07:51:40;11.40;99.90
4564;DHT22;2294;51.818;8.484;2023-05-02T07:54:16;11.40;99.90
4564;DHT22;2294;51.818;8.484;2023-05-02T07:56:43;11.30;99.90
4564;DHT22;2294;51.818;8.484;2023-05-02T07:59:12;11.20;99.90
4564;DHT22;2294;51.818;8.484;2023-05-02T08:01:39;11.20;99.90
4564;DHT22;2294;51.818;8.484;2023-05-02T08:04:06;11.00;99.90
4564;DHT22;2294;51.818;8.484;2023-05-02T08:06:33;10.90;99.90
4564;DHT22;2294;51.818;8.484;2023-05-02T08:09:00;11.00;99.90
4564;DHT22;2294;51.818;8.484;2023-05-02T08:11:27;11.00;99.90
4564;DHT22;2294;51.818;8.484;2023-05-02T08:13:54;10.70;99.90
4564;DHT22;2294;51.818;8.484;2023-05-02T08:16:22;10.80;99.90
4564;DHT22;2294;51.818;8.484;2023-05-02T08:18:49;10.60;99.90
4564;DHT22;2294;51.818;8.484;2023-05-02T08:21:15;10.00;99.90
4564;DHT22;2294;51.818;8.484;2023-05-02T08:23:42;10.50;99.90
4564;DHT22;2294;51.818;8.484;2023-05-02T08:28:37;10.50;99.90
4564;DHT22;2294;51.818;8.484;2023-05-02T08:31:04;10.50;99.90
4564;DHT22;2294;51.818;8.484;2023-05-02T08:33:32;10.50;99.90
4564;DHT22;2294;51.818;8.484;2023-05-02T08:35:59;10.60;99.90
4564;DHT22;2294;51.818;8.484;2023-05-02T08:38:26;10.70;99.90
4564;DHT22;2294;51.818;8.484;2023-05-02T08:40:53;10.60;99.90
4564;DHT22;2294;51.818;8.484;2023-05-02T08:43:20;10.50;99.90
4564;DHT22;2294;51.818;8.484;2023-05-02T08:45:49;10.40;99.90
4564;DHT22;2294;51.818;8.484;2023-05-02T08:48:19;10.30;99.90
4564;DHT22;2294;51.818;8.484;2023-05-02T08:50:49;10.40;99.90
4564;DHT22;2294;51.818;8.484;2023-05-02T08:53:18;10.40;99.90
4564;DHT22;2294;51.818;8.484;2023-05-02T08:55:47;10.10;99.90
4564;DHT22;2294;51.818;8.484;2023-05-02T08:58:14;10.30;99.90
4564;DHT22;2294;51.818;8.484;2023-05-02T09:00:42;10.40;99.90
4564;DHT22;2294;51.818;8.484;2023-05-02T09:03:18;10.30;99.90
4564;DHT22;2294;51.818;8.484;2023-05-02T09:05:51;10.10;99.90
4564;DHT22;2294;51.818;8.484;2023-05-02T09:08:21;10.20;99.90
4564;DHT22;2294;51.818;8.484;2023-05-02T09:10:48;10.10;99.90
4564;DHT22;2294;51.818;8.484;2023-05-02T09:13:32;10.00;99.90
4564;DHT22;2294;51.818;8.484;2023-05-02T09:16:01;10.30;99.90
4564;DHT22;2294;51.818;8.484;2023-05-02T09:18:30;10.50;99.90
4564;DHT22;2294;51.818;8.484;2023-05-02T09:21:00;10.80;99.90
4564;DHT22;2294;51.818;8.484;2023-05-02T09:23:37;10.60;99.90
4564;DHT22;2294;51.818;8.484;2023-05-02T09:26:12;10.00;99.90
4564;DHT22;2294;51.818;8.484;2023-05-02T09:28:41;10.00;99.90
4564;DHT22;2294;51.818;8.484;2023-05-02T09:31:09;10.00;99.90
4564;DHT22;2294;51.818;8.484;2023-05-02T09:33:38;10.10;99.90
4564;DHT22;2294;51.818;8.484;2023-05-02T09:36:10;9.90;99.90
4564;DHT22;2294;51.818;8.484;2023-05-02T09:38:38;10.20;99.90
4564;DHT22;2294;51.818;8.484;2023-05-02T09:41:06;9.90;99.90
4564;DHT22;2294;51.818;8.484;2023-05-02T09:43:32;9.70;99.90
4564;DHT22;2294;51.818;8.484;2023-05-02T09:46:01;10.10;99.90
4564;DHT22;2294;51.818;8.484;2023-05-02T09:48:29;10.80;99.90
4564;DHT22;2294;51.818;8.484;2023-05-02T09:50:56;10.00;99.90
4564;DHT22;2294;51.818;8.484;2023-05-02T09:53:26;9.80;99.90
4564;DHT22;2294;51.818;8.484;2023-05-02T09:56:00;9.80;99.90
4564;DHT22;2294;51.818;8.484;2023-05-02T09:58:27;9.90;99.90
4564;DHT22;2294;51.818;8.484;2023-05-02T10:00:55;10.20;99.90
4564;DHT22;2294;51.818;8.484;2023-05-02T10:03:24;10.00;99.90
4564;DHT22;2294;51.818;8.484;2023-05-02T10:05:51;10.70;99.90
4564;DHT22;2294;51.818;8.484;2023-05-02T10:08:20;10.40;99.90
4564;DHT22;2294;51.818;8.484;2023-05-02T10:10:50;10.20;99.90
4564;DHT22;2294;51.818;8.484;2023-05-02T10:13:19;10.70;99.90
4564;DHT22;2294;51.818;8.484;2023-05-02T10:15:49;10.80;99.90
4564;DHT22;2294;51.818;8.484;2023-05-02T10:18:25;11.20;99.90
4564;DHT22;2294;51.818;8.484;2023-05-02T10:20:55;10.10;99.90
4564;DHT22;2294;51.818;8.484;2023-05-02T10:23:25;10.40;99.90
4564;DHT22;2294;51.818;8.484;2023-05-02T10:25:54;10.90;99.90
4564;DHT22;2294;51.818;8.484;2023-05-02T10:28:23;10.90;99.90
4564;DHT22;2294;51.818;8.484;2023-05-02T10:30:51;10.60;99.90
4564;DHT22;2294;51.818;8.484;2023-05-02T10:33:19;10.40;99.90
4564;DHT22;2294;51.818;8.484;2023-05-02T10:35:47;10.40;99.90
4564;DHT22;2294;51.818;8.484;2023-05-02T10:38:15;10.30;99.90
4564;DHT22;2294;51.818;8.484;2023-05-02T10:40:48;10.60;99.90
4564;DHT22;2294;51.818;8.484;2023-05-02T10:43:23;10.40;99.90
4564;DHT22;2294;51.818;8.484;2023-05-02T10:45:51;10.40;99.90
4564;DHT22;2294;51.818;8.484;2023-05-02T10:48:20;10.00;99.90
4564;DHT22;2294;51.818;8.484;2023-05-02T10:50:48;9.80;99.90
4564;DHT22;2294;51.818;8.484;2023-05-02T10:53:26;10.40;99.90
4564;DHT22;2294;51.818;8.484;2023-05-02T10:56:13;10.40;99.90
4564;DHT22;2294;51.818;8.484;2023-05-02T10:58:42;10.10;99.90
4564;DHT22;2294;51.818;8.484;2023-05-02T11:01:32;10.40;99.90
4564;DHT22;2294;51.818;8.484;2023-05-02T11:04:03;10.40;99.90
4564;DHT22;2294;51.818;8.484;2023-05-02T11:06:31;10.80;99.90
4564;DHT22;2294;51.818;8.484;2023-05-02T11:09:28;10.70;99.90
4564;DHT22;2294;51.818;8.484;2023-05-02T11:11:55;10.30;99.90
4564;DHT22;2294;51.818;8.484;2023-05-02T11:14:43;10.30;99.90
4564;DHT22;2294;51.818;8.484;2023-05-02T11:17:12;10.20;99.90
4564;DHT22;2294;51.818;8.484;2023-05-02T11:22:58;10.70;99.90
4564;DHT22;2294;51.818;8.484;2023-05-02T11:25:31;10.80;99.90
4564;DHT22;2294;51.818;8.484;2023-05-02T11:27:58;10.90;99.90
4564;DHT22;2294;51.818;8.484;2023-05-02T11:30:41;10.10;99.90
4564;DHT22;2294;51.818;8.484;2023-05-02T11:33:13;10.30;99.90
4564;DHT22;2294;51.818;8.484;2023-05-02T11:35:47;10.40;99.90
4564;DHT22;2294;51.818;8.484;2023-05-02T11:38:17;10.80;99.90
4564;DHT22;2294;51.818;8.484;2023-05-02T11:40:55;10.70;99.90
4564;DHT22;2294;51.818;8.484;2023-05-02T11:43:24;11.20;99.90
4564;DHT22;2294;51.818;8.484;2023-05-02T11:45:53;11.20;99.90
4564;DHT22;2294;51.818;8.484;2023-05-02T11:48:21;11.50;99.90
4564;DHT22;2294;51.818;8.484;2023-05-02T11:50:49;12.60;99.90
4564;DHT22;2294;51.818;8.484;2023-05-02T11:53:18;11.30;99.90
4564;DHT22;2294;51.818;8.484;2023-05-02T11:55:47;12.10;99.90
4564;DHT22;2294;51.818;8.484;2023-05-02T11:58:16;12.20;99.90
4564;DHT22;2294;51.818;8.484;2023-05-02T12:00:44;11.90;99.90
4564;DHT22;2294;51.818;8.484;2023-05-02T12:03:23;11.60;99.90
4564;DHT22;2294;51.818;8.484;2023-05-02T12:05:50;11.30;99.90
4564;DHT22;2294;51.818;8.484;2023-05-02T12:08:21;11.40;99.90
4564;DHT22;2294;51.818;8.484;2023-05-02T12:10:49;12.10;99.90
4564;DHT22;2294;51.818;8.484;2023-05-02T12:13:19;11.60;99.90
4564;DHT22;2294;51.818;8.484;2023-05-02T12:15:47;11.30;99.90
4564;DHT22;2294;51.818;8.484;2023-05-02T12:18:15;11.90;99.90
4564;DHT22;2294;51.818;8.484;2023-05-02T12:20:44;11.70;99.90
4564;DHT22;2294;51.818;8.484;2023-05-02T12:23:11;11.90;99.90
4564;DHT22;2294;51.818;8.484;2023-05-02T12:25:39;11.10;99.90
4564;DHT22;2294;51.818;8.484;2023-05-02T12:28:06;10.50;99.90
4564;DHT22;2294;51.818;8.484;2023-05-02T12:30:34;10.50;99.90
4564;DHT22;2294;51.818;8.484;2023-05-02T12:33:03;10.60;99.90
4564;DHT22;2294;51.818;8.484;2023-05-02T12:35:32;10.80;99.90
4564;DHT22;2294;51.818;8.484;2023-05-02T12:38:14;10.50;99.90
4564;DHT22;2294;51.818;8.484;2023-05-02T12:40:52;10.50;99.90
4564;DHT22;2294;51.818;8.484;2023-05-02T12:43:22;10.30;99.90
4564;DHT22;2294;51.818;8.484;2023-05-02T12:45:49;10.30;99.90
4564;DHT22;2294;51.818;8.484;2023-05-02T12:48:20;10.50;99.90
4564;DHT22;2294;51.818;8.484;2023-05-02T12:50:47;10.60;99.90
4564;DHT22;2294;51.818;8.484;2023-05-02T12:53:15;11.20;99.90
4564;DHT22;2294;51.818;8.484;2023-05-02T12:55:42;11.30;99.90
4564;DHT22;2294;51.818;8.484;2023-05-02T12:58:10;10.90;99.90
4564;DHT22;2294;51.818;8.484;2023-05-02T13:00:39;10.80;99.90
4564;DHT22;2294;51.818;8.484;2023-05-02T13:03:07;11.00;99.90
4564;DHT22;2294;51.818;8.484;2023-05-02T13:05:35;11.20;99.90
4564;DHT22;2294;51.818;8.484;2023-05-02T13:08:02;10.90;99.90
4564;DHT22;2294;51.818;8.484;2023-05-02T13:10:31;11.50;99.90
4564;DHT22;2294;51.818;8.484;2023-05-02T13:12:58;11.80;99.90
4564;DHT22;2294;51.818;8.484;2023-05-02T13:15:26;11.50;99.90
4564;DHT22;2294;51.818;8.484;2023-05-02T13:17:53;11.60;99.90
4564;DHT22;2294;51.818;8.484;2023-05-02T13:20:20;12.10;99.90
4564;DHT22;2294;51.818;8.484;2023-05-02T13:22:47;12.90;99.90
4564;DHT22;2294;51.818;8.484;2023-05-02T13:25:13;13.30;99.90
4564;DHT22;2294;51.818;8.484;2023-05-02T13:27:42;13.90;99.90
4564;DHT22;2294;51.818;8.484;2023-05-02T13:30:11;13.10;99.90
4564;DHT22;2294;51.818;8.484;2023-05-02T13:32:38;12.80;99.90
4564;DHT22;2294;51.818;8.484;2023-05-02T13:35:06;12.00;99.90
4564;DHT22;2294;51.818;8.484;2023-05-02T13:37:33;11.80;99.90
4564;DHT22;2294;51.818;8.484;2023-05-02T13:40:00;12.00;99.90
4564;DHT22;2294;51.818;8.484;2023-05-02T13:42:27;12.30;99.90
4564;DHT22;2294;51.818;8.484;2023-05-02T13:44:55;12.30;99.90
4564;DHT22;2294;51.818;8.484;2023-05-02T13:47:22;12.50;99.90
4564;DHT22;2294;51.818;8.484;2023-05-02T13:49:49;12.50;99.90
4564;DHT22;2294;51.818;8.484;2023-05-02T13:52:16;12.00;99.90
4564;DHT22;2294;51.818;8.484;2023-05-02T13:54:43;12.00;99.90
4564;DHT22;2294;51.818;8.484;2023-05-02T13:57:09;12.60;99.90
4564;DHT22;2294;51.818;8.484;2023-05-02T13:59:36;12.90;99.90
4564;DHT22;2294;51.818;8.484;2023-05-02T14:02:05;14.40;99.90
4564;DHT22;2294;51.818;8.484;2023-05-02T14:04:31;15.50;99.90
4564;DHT22;2294;51.818;8.484;2023-05-02T14:06:58;17.30;99.90
4564;DHT22;2294;51.818;8.484;2023-05-02T14:09:25;17.30;99.90
4564;DHT22;2294;51.818;8.484;2023-05-02T14:11:52;19.90;99.90
4564;DHT22;2294;51.818;8.484;2023-05-02T14:14:20;18.70;99.90
4564;DHT22;2294;51.818;8.484;2023-05-02T14:16:46;15.20;99.90
4564;DHT22;2294;51.818;8.484;2023-05-02T14:19:15;18.30;99.90
4564;DHT22;2294;51.818;8.484;2023-05-02T14:21:42;18.10;99.90
4564;DHT22;2294;51.818;8.484;2023-05-02T14:24:09;14.80;99.90
4564;DHT22;2294;51.818;8.484;2023-05-02T14:26:39;13.40;99.90
4564;DHT22;2294;51.818;8.484;2023-05-02T14:29:06;12.60;99.90
4564;DHT22;2294;51.818;8.484;2023-05-02T14:31:33;12.20;99.90
4564;DHT22;2294;51.818;8.484;2023-05-02T14:34:00;13.30;99.90
4564;DHT22;2294;51.818;8.484;2023-05-02T14:38:56;12.70;99.90
4564;DHT22;2294;51.818;8.484;2023-05-02T14:41:23;13.50;99.90
4564;DHT22;2294;51.818;8.484;2023-05-02T14:43:51;13.60;99.90
4564;DHT22;2294;51.818;8.484;2023-05-02T14:46:18;13.50;99.90
4564;DHT22;2294;51.818;8.484;2023-05-02T14:48:45;16.10;99.90
4564;DHT22;2294;51.818;8.484;2023-05-02T14:51:12;17.30;99.90
4564;DHT22;2294;51.818;8.484;2023-05-02T14:53:40;14.60;99.90
4564;DHT22;2294;51.818;8.484;2023-05-02T14:56:11;13.10;99.90
4564;DHT22;2294;51.818;8.484;2023-05-02T14:58:38;13.00;99.90
4564;DHT22;2294;51.818;8.484;2023-05-02T15:01:05;12.20;99.90
4564;DHT22;2294;51.818;8.484;2023-05-02T15:03:31;12.50;99.90
4564;DHT22;2294;51.818;8.484;2023-05-02T15:05:58;12.70;99.90
4564;DHT22;2294;51.818;8.484;2023-05-02T15:08:25;13.50;99.90
4564;DHT22;2294;51.818;8.484;2023-05-02T15:10:54;17.10;99.90
4564;DHT22;2294;51.818;8.484;2023-05-02T15:13:21;14.40;99.90
4564;DHT22;2294;51.818;8.484;2023-05-02T15:15:48;14.50;99.90
4564;DHT22;2294;51.818;8.484;2023-05-02T15:18:15;13.70;99.90
4564;DHT22;2294;51.818;8.484;2023-05-02T15:23:09;13.90;99.90
4564;DHT22;2294;51.818;8.484;2023-05-02T15:25:36;13.90;99.90
4564;DHT22;2294;51.818;8.484;2023-05-02T15:28:04;12.70;99.90
4564;DHT22;2294;51.818;8.484;2023-05-02T15:30:32;12.60;99.90
4564;DHT22;2294;51.818;8.484;2023-05-02T15:33:00;12.90;99.90
4564;DHT22;2294;51.818;8.484;2023-05-02T15:35:27;12.70;99.90
4564;DHT22;2294;51.818;8.484;2023-05-02T15:37:54;12.90;99.90
4564;DHT22;2294;51.818;8.484;2023-05-02T15:40:21;12.60;99.90
4564;DHT22;2294;51.818;8.484;2023-05-02T15:42:50;13.50;99.90
4564;DHT22;2294;51.818;8.484;2023-05-02T15:45:18;13.60;99.90
4564;DHT22;2294;51.818;8.484;2023-05-02T15:47:45;13.60;99.90
4564;DHT22;2294;51.818;8.484;2023-05-02T15:50:12;13.20;99.90
4564;DHT22;2294;51.818;8.484;2023-05-02T15:52:39;13.60;99.90
4564;DHT22;2294;51.818;8.484;2023-05-02T15:55:06;13.50;99.90
4564;DHT22;2294;51.818;8.484;2023-05-02T15:57:33;15.50;99.90
4564;DHT22;2294;51.818;8.484;2023-05-02T16:00:00;16.10;99.90
4564;DHT22;2294;51.818;8.484;2023-05-02T16:02:28;17.20;99.90
4564;DHT22;2294;51.818;8.484;2023-05-02T16:04:56;18.00;99.90
4564;DHT22;2294;51.818;8.484;2023-05-02T16:07:22;18.40;99.90
4564;DHT22;2294;51.818;8.484;2023-05-02T16:09:49;18.90;99.90
4564;DHT22;2294;51.818;8.484;2023-05-02T16:12:19;19.70;99.90
4564;DHT22;2294;51.818;8.484;2023-05-02T16:14:46;18.90;99.90
4564;DHT22;2294;51.818;8.484;2023-05-02T16:17:13;19.70;99.90
4564;DHT22;2294;51.818;8.484;2023-05-02T16:19:41;20.20;99.90
4564;DHT22;2294;51.818;8.484;2023-05-02T16:22:08;18.10;99.90